sensor_id;sensor_type;location;lat;lon;timestamp;pressure;altitude;pressure_sealevel;temperature;humidity
22775;BME280;11554;51.106;3.684;2023-03-14T00:00:00;98979.45999999999;;;9.12;100.0
22775;BME280;11554;51.106;3.684;2023-03-14T00:05:00;98977.86;;;9.07;100.0
22775;BME280;11554;51.106;3.684;2023-03-14T00:10:00;98964.9;;;8.95;100.0
22775;BME280;11554;51.106;3.684;2023-03-14T00:15:00;98967.7;;;8.94;100.0
22775;BME280;11554;51.106;3.684;2023-03-14T00:20:00;98973.75;;;8.93;100.0
22775;BME280;11554;51.106;3.684;2023-03-14T00:25:00;98968.7;;;8.98;100.0
22775;BME280;11554;51.106;3.684;2023-03-14T00:30:00;98977.48;;;8.93;100.0
22775;BME280;11554;51.106;3.684;2023-03-14T00:35:00;98985.94;;;8.88;100.0
22775;BME280;11554;51.106;3.684;2023-03-14T00:40:00;98983.14;;;8.83;100.0
22775;BME280;11554;51.106;3.684;2023-03-14T00:45:00;98973.20999999999;;;8.78;100.0
22775;BME280;11554;51.106;3.684;2023-03-14T00:50:00;98952.73;;;8.73;100.0
22775;BME280;11554;51.106;3.684;2023-03-14T00:55:00;98961.86;;;8.70;100.0
22775;BME280;11554;51.106;3.684;2023-03-14T01:00:00;98966.97;;;8.71;100.0
22775;BME280;11554;51.106;3.684;2023-03-14T01:05:00;98973.29;;;8.76;100.0
22775;BME280;11554;51.106;3.684;2023-03-14T01:10:00;98969.56;;;8.83;100.0
22775;BME280;11554;51.106;3.684;2023-03-14T01:15:00;98968.46;;;8.92;100.0
22775;BME280;11554;51.106;3.684;2023-03-14T01:20:00;98956.31;;;8.93;100.0
22775;BME280;11554;51.106;3.684;2023-03-14T01:25:00;98956.16;;;8.93;100.0
22775;BME280;11554;51.106;3.684;2023-03-14T01:30:00;98934.98;;;8.94;100.0
22775;BME280;11554;51.106;3.684;2023-03-14T01:35:00;98931.41;;;8.97;100.0
22775;BME280;11554;51.106;3.684;2023-03-14T01:40:00;98934.11;;;8.98;100.0
22775;BME280;11554;51.106;3.684;2023-03-14T01:45:02;98939.48000000001;;;8.98;100.0
22775;BME280;11554;51.106;3.684;2023-03-14T01:50:01;98931.29000000001;;;9.00;100.0
22775;BME280;11554;51.106;3.684;2023-03-14T01:55:02;98928.49;;;9.02;100.0
22775;BME280;11554;51.106;3.684;2023-03-14T02:00:00;98927.33;;;9.02;100.0
22775;BME280;11554;51.106;3.684;2023-03-14T02:05:00;98912.67;;;8.99;100.0
22775;BME280;11554;51.106;3.684;2023-03-14T02:10:00;98909.01;;;8.99;100.0
22775;BME280;11554;51.106;3.684;2023-03-14T02:15:00;98914.65;;;9.01;100.0
22775;BME280;11554;51.106;3.684;2023-03-14T02:20:04;98914.57;;;9.03;100.0
22775;BME280;11554;51.106;3.684;2023-03-14T02:25:02;98907.76;;;9.05;100.0
22775;BME280;11554;51.106;3.684;2023-03-14T02:30:01;98893.39;;;9.04;100.0
22775;BME280;11554;51.106;3.684;2023-03-14T02:35:01;98888.42;;;9.02;100.0
22775;BME280;11554;51.106;3.684;2023-03-14T02:40:00;98889.42;;;8.98;100.0
22775;BME280;11554;51.106;3.684;2023-03-14T02:45:33;98883.89;;;8.96;100.0
22775;BME280;11554;51.106;3.684;2023-03-14T02:50:01;98881.61;;;8.91;100.0
22775;BME280;11554;51.106;3.684;2023-03-14T02:55:00;98875.62000000001;;;8.86;100.0
22775;BME280;11554;51.106;3.684;2023-03-14T03:00:00;98867.56;;;8.79;100.0
22775;BME280;11554;51.106;3.684;2023-03-14T03:05:00;98873.19;;;8.70;100.0
22775;BME280;11554;51.106;3.684;2023-03-14T03:10:00;98876.37;;;8.67;100.0
22775;BME280;11554;51.106;3.684;2023-03-14T03:15:00;98876.31;;;8.66;100.0
22775;BME280;11554;51.106;3.684;2023-03-14T03:20:00;98880.33;;;8.67;100.0
22775;BME280;11554;51.106;3.684;2023-03-14T03:25:00;98885.94;;;8.65;100.0
22775;BME280;11554;51.106;3.684;2023-03-14T03:30:00;98891.02;;;8.67;100.0
22775;BME280;11554;51.106;3.684;2023-03-14T03:35:01;98887.01999999999;;;8.72;100.0
22775;BME280;11554;51.106;3.684;2023-03-14T03:40:00;98878.74;;;8.80;100.0
22775;BME280;11554;51.106;3.684;2023-03-14T03:45:00;98874.83;;;8.87;100.0
22775;BME280;11554;51.106;3.684;2023-03-14T03:50:00;98876.03;;;8.94;100.0
22775;BME280;11554;51.106;3.684;2023-03-14T03:55:00;98872.6;;;8.98;100.0
22775;BME280;11554;51.106;3.684;2023-03-14T04:00:00;98863.92;;;8.99;100.0
22775;BME280;11554;51.106;3.684;2023-03-14T04:05:00;98874.59999999999;;;8.98;100.0
22775;BME280;11554;51.106;3.684;2023-03-14T04:10:00;98883.22;;;8.99;100.0
22775;BME280;11554;51.106;3.684;2023-03-14T04:15:00;98880.74;;;9.00;100.0
22775;BME280;11554;51.106;3.684;2023-03-14T04:20:00;98886.39;;;8.99;100.0
22775;BME280;11554;51.106;3.684;2023-03-14T04:25:00;98886.28;;;8.98;100.0
22775;BME280;11554;51.106;3.684;2023-03-14T04:30:00;98883.22;;;8.97;100.0
22775;BME280;11554;51.106;3.684;2023-03-14T04:35:00;98887.86;;;8.98;100.0
22775;BME280;11554;51.106;3.684;2023-03-14T04:40:00;98888.68;;;9.01;100.0
22775;BME280;11554;51.106;3.684;2023-03-14T04:45:00;98896.37;;;9.00;100.0
22775;BME280;11554;51.106;3.684;2023-03-14T04:50:00;98892.75;;;9.01;100.0
22775;BME280;11554;51.106;3.684;2023-03-14T04:55:00;98890.05;;;9.02;100.0
22775;BME280;11554;51.106;3.684;2023-03-14T05:00:00;98891.4;;;9.05;100.0
22775;BME280;11554;51.106;3.684;2023-03-14T05:05:00;98887.43;;;9.08;100.0
22775;BME280;11554;51.106;3.684;2023-03-14T05:10:00;98878.56;;;9.09;100.0
22775;BME280;11554;51.106;3.684;2023-03-14T05:15:00;98880.56;;;9.06;100.0
22775;BME280;11554;51.106;3.684;2023-03-14T05:20:00;98877.64;;;9.02;100.0
22775;BME280;11554;51.106;3.684;2023-03-14T05:25:00;98874.51999999999;;;8.98;100.0
22775;BME280;11554;51.106;3.684;2023-03-14T05:30:00;98883.14;;;8.95;100.0
22775;BME280;11554;51.106;3.684;2023-03-14T05:35:00;98941.81999999999;;;8.92;100.0
22775;BME280;11554;51.106;3.684;2023-03-14T05:40:00;98966.85;;;8.37;100.0
22775;BME280;11554;51.106;3.684;2023-03-14T05:45:00;98984.66;;;7.98;100.0
22775;BME280;11554;51.106;3.684;2023-03-14T05:50:00;99005.70999999999;;;7.77;100.0
22775;BME280;11554;51.106;3.684;2023-03-14T05:55:00;99027.79000000001;;;7.63;100.0
22775;BME280;11554;51.106;3.684;2023-03-14T06:00:00;99036.25;;;7.51;100.0
22775;BME280;11554;51.106;3.684;2023-03-14T06:05:00;99066.66;;;7.32;100.0
22775;BME280;11554;51.106;3.684;2023-03-14T06:10:00;99092.21;;;7.17;100.0
22775;BME280;11554;51.106;3.684;2023-03-14T06:15:00;99109.03;;;7.05;100.0
22775;BME280;11554;51.106;3.684;2023-03-14T06:20:00;99124.72;;;6.95;100.0
22775;BME280;11554;51.106;3.684;2023-03-14T06:25:00;99142.71;;;6.92;100.0
22775;BME280;11554;51.106;3.684;2023-03-14T06:30:00;99153.95999999999;;;6.87;100.0
22775;BME280;11554;51.106;3.684;2023-03-14T06:35:00;99171.55;;;6.80;100.0
22775;BME280;11554;51.106;3.684;2023-03-14T06:40:00;99197.06;;;6.78;100.0
22775;BME280;11554;51.106;3.684;2023-03-14T06:45:00;99214.86;;;6.76;100.0
22775;BME280;11554;51.106;3.684;2023-03-14T06:50:00;99229.17;;;6.73;100.0
22775;BME280;11554;51.106;3.684;2023-03-14T06:55:00;99238.04000000001;;;6.72;100.0
22775;BME280;11554;51.106;3.684;2023-03-14T07:00:00;99253.22;;;6.66;100.0
22775;BME280;11554;51.106;3.684;2023-03-14T07:05:00;99274.98000000001;;;6.63;100.0
22775;BME280;11554;51.106;3.684;2023-03-14T07:10:00;99300.57;;;6.62;100.0
22775;BME280;11554;51.106;3.684;2023-03-14T07:15:00;99318.34;;;6.59;100.0
22775;BME280;11554;51.106;3.684;2023-03-14T07:20:00;99338.84000000001;;;6.54;100.0
22775;BME280;11554;51.106;3.684;2023-03-14T07:25:00;99371.11;;;6.51;100.0
22775;BME280;11554;51.106;3.684;2023-03-14T07:30:00;99385.74;;;6.49;100.0
22775;BME280;11554;51.106;3.684;2023-03-14T07:35:00;99410.49;;;6.42;100.0
22775;BME280;11554;51.106;3.684;2023-03-14T07:40:00;99418.33;;;6.29;100.0
22775;BME280;11554;51.106;3.684;2023-03-14T07:45:00;99443.03;;;6.29;100.0
22775;BME280;11554;51.106;3.684;2023-03-14T07:50:00;99456.41;;;6.28;100.0
22775;BME280;11554;51.106;3.684;2023-03-14T07:55:00;99467.46;;;6.29;100.0
22775;BME280;11554;51.106;3.684;2023-03-14T08:00:00;99486.15;;;6.29;100.0
22775;BME280;11554;51.106;3.684;2023-03-14T08:05:00;99510.74;;;6.29;100.0
22775;BME280;11554;51.106;3.684;2023-03-14T08:10:00;99527.58;;;6.28;100.0
22775;BME280;11554;51.106;3.684;2023-03-14T08:15:00;99541.03;;;6.24;100.0
22775;BME280;11554;51.106;3.684;2023-03-14T08:20:00;99559.69;;;6.14;100.0
22775;BME280;11554;51.106;3.684;2023-03-14T08:25:00;99576.25;;;6.09;100.0
22775;BME280;11554;51.106;3.684;2023-03-14T08:30:01;99590.12;;;6.13;100.0
22775;BME280;11554;51.106;3.684;2023-03-14T08:35:00;99601.61;;;6.30;100.0
22775;BME280;11554;51.106;3.684;2023-03-14T08:40:00;99623.65;;;6.58;100.0
22775;BME280;11554;51.106;3.684;2023-03-14T08:45:00;99655.69;;;6.54;100.0
22775;BME280;11554;51.106;3.684;2023-03-14T08:50:00;99666.76;;;6.49;100.0
22775;BME280;11554;51.106;3.684;2023-03-14T08:55:00;99669.83;;;6.50;100.0
22775;BME280;11554;51.106;3.684;2023-03-14T09:00:00;99692.46;;;6.69;100.0
22775;BME280;11554;51.106;3.684;2023-03-14T09:05:00;99691.74;;;7.05;100.0
22775;BME280;11554;51.106;3.684;2023-03-14T09:10:00;99709.99;;;7.64;100.0
22775;BME280;11554;51.106;3.684;2023-03-14T09:15:00;99725.33;;;7.27;100.0
22775;BME280;11554;51.106;3.684;2023-03-14T09:20:00;99736.55;;;7.09;100.0
22775;BME280;11554;51.106;3.684;2023-03-14T09:25:00;99764.37;;;6.86;100.0
22775;BME280;11554;51.106;3.684;2023-03-14T09:30:00;99795.73000000001;;;6.68;100.0
22775;BME280;11554;51.106;3.684;2023-03-14T09:35:00;99813.98000000001;;;6.46;100.0
22775;BME280;11554;51.106;3.684;2023-03-14T09:40:00;99836.44;;;6.33;100.0
22775;BME280;11554;51.106;3.684;2023-03-14T09:45:01;99848.85;;;6.03;100.0
22775;BME280;11554;51.106;3.684;2023-03-14T09:50:00;99866.99;;;5.98;100.0
22775;BME280;11554;51.106;3.684;2023-03-14T09:55:01;99870.96;;;6.06;100.0
22775;BME280;11554;51.106;3.684;2023-03-14T10:00:02;99884.3;;;5.93;100.0
22775;BME280;11554;51.106;3.684;2023-03-14T10:05:00;99901.29;;;6.03;100.0
22775;BME280;11554;51.106;3.684;2023-03-14T10:10:00;99905.66;;;6.06;100.0
22775;BME280;11554;51.106;3.684;2023-03-14T10:15:02;99913.94;;;5.95;100.0
22775;BME280;11554;51.106;3.684;2023-03-14T10:20:00;99928.3;;;5.95;100.0
22775;BME280;11554;51.106;3.684;2023-03-14T10:25:01;99940.88;;;6.24;100.0
22775;BME280;11554;51.106;3.684;2023-03-14T10:30:01;99954.19;;;6.16;100.0
22775;BME280;11554;51.106;3.684;2023-03-14T10:35:05;99978.17;;;6.09;100.0
22775;BME280;11554;51.106;3.684;2023-03-14T10:40:00;99992.61;;;6.07;100.0
22775;BME280;11554;51.106;3.684;2023-03-14T10:45:00;100004.44;;;6.09;100.0
22775;BME280;11554;51.106;3.684;2023-03-14T10:50:21;100015.99;;;6.49;100.0
22775;BME280;11554;51.106;3.684;2023-03-14T10:55:01;100035.94;;;6.89;100.0
22775;BME280;11554;51.106;3.684;2023-03-14T11:00:00;100047.99;;;7.43;100.0
22775;BME280;11554;51.106;3.684;2023-03-14T11:05:03;100063.75;;;7.83;100.0
22775;BME280;11554;51.106;3.684;2023-03-14T11:10:01;100077.4;;;8.30;100.0
22775;BME280;11554;51.106;3.684;2023-03-14T11:15:01;100083.15;;;8.48;100.0
22775;BME280;11554;51.106;3.684;2023-03-14T11:20:05;100104.13;;;8.04;100.0
22775;BME280;11554;51.106;3.684;2023-03-14T11:25:04;100129.22;;;7.83;100.0
22775;BME280;11554;51.106;3.684;2023-03-14T11:30:01;100135.63;;;7.63;100.0
22775;BME280;11554;51.106;3.684;2023-03-14T11:35:01;100161.73999999999;;;7.39;100.0
22775;BME280;11554;51.106;3.684;2023-03-14T11:40:01;100180.08;;;7.10;100.0
22775;BME280;11554;51.106;3.684;2023-03-14T11:45:00;100192.42;;;7.09;100.0
22775;BME280;11554;51.106;3.684;2023-03-14T11:50:01;100191.66;;;7.19;100.0
22775;BME280;11554;51.106;3.684;2023-03-14T11:55:02;100209.07999999999;;;7.42;100.0
22775;BME280;11554;51.106;3.684;2023-03-14T12:00:00;100228.76;;;7.34;100.0
22775;BME280;11554;51.106;3.684;2023-03-14T12:10:01;100256.5;;;6.53;100.0
22775;BME280;11554;51.106;3.684;2023-03-14T12:15:00;100266.5;;;6.73;100.0
22775;BME280;11554;51.106;3.684;2023-03-14T12:20:01;100269.98;;;6.84;100.0
22775;BME280;11554;51.106;3.684;2023-03-14T12:30:00;100303.52;;;6.90;100.0
22775;BME280;11554;51.106;3.684;2023-03-14T12:35:06;100325.89;;;6.72;100.0
22775;BME280;11554;51.106;3.684;2023-03-14T12:40:03;100338.25;;;6.56;100.0
22775;BME280;11554;51.106;3.684;2023-03-14T12:50:01;100381.24;;;6.09;100.0
22775;BME280;11554;51.106;3.684;2023-03-14T12:55:00;100388.17;;;5.74;100.0
22775;BME280;11554;51.106;3.684;2023-03-14T13:00:00;100380.64;;;6.26;100.0
22775;BME280;11554;51.106;3.684;2023-03-14T13:05:02;100400.53;;;6.85;100.0
22775;BME280;11554;51.106;3.684;2023-03-14T13:10:01;100417.93000000001;;;6.95;100.0
22775;BME280;11554;51.106;3.684;2023-03-14T13:15:00;100434.17;;;6.92;100.0
22775;BME280;11554;51.106;3.684;2023-03-14T13:20:01;100431.05;;;6.81;100.0
22775;BME280;11554;51.106;3.684;2023-03-14T13:25:01;100440.36;;;7.23;100.0
22775;BME280;11554;51.106;3.684;2023-03-14T13:30:04;100454.75;;;7.38;99.19
22775;BME280;11554;51.106;3.684;2023-03-14T13:35:00;100465.23;;;7.33;96.35
22775;BME280;11554;51.106;3.684;2023-03-14T13:40:00;100489.17;;;7.15;96.19
22775;BME280;11554;51.106;3.684;2023-03-14T13:45:00;100530.28;;;6.80;93.28
22775;BME280;11554;51.106;3.684;2023-03-14T13:50:00;100545.26;;;6.31;92.81
22775;BME280;11554;51.106;3.684;2023-03-14T13:55:00;100566.86;;;6.10;94.07
22775;BME280;11554;51.106;3.684;2023-03-14T14:00:01;100571.47;;;6.00;92.41
22775;BME280;11554;51.106;3.684;2023-03-14T14:05:00;100589.53;;;6.15;93.92
22775;BME280;11554;51.106;3.684;2023-03-14T14:15:01;100600.68;;;6.11;87.49
22775;BME280;11554;51.106;3.684;2023-03-14T14:20:00;100622.51;;;6.24;88.84
22775;BME280;11554;51.106;3.684;2023-03-14T14:25:00;100626.14;;;6.24;87.7
22775;BME280;11554;51.106;3.684;2023-03-14T14:30:01;100625.7;;;6.17;82.66
22775;BME280;11554;51.106;3.684;2023-03-14T14:35:00;100635.01;;;6.18;83.0
22775;BME280;11554;51.106;3.684;2023-03-14T14:40:05;100659.26;;;6.16;83.53
22775;BME280;11554;51.106;3.684;2023-03-14T14:45:02;100678.94;;;6.10;82.48
22775;BME280;11554;51.106;3.684;2023-03-14T14:50:00;100682.28;;;6.08;84.0
22775;BME280;11554;51.106;3.684;2023-03-14T14:55:00;100685.53;;;6.10;85.8
22775;BME280;11554;51.106;3.684;2023-03-14T15:00:01;100704.57;;;6.10;87.2
22775;BME280;11554;51.106;3.684;2023-03-14T15:05:00;100707.31;;;6.09;86.82
22775;BME280;11554;51.106;3.684;2023-03-14T15:10:00;100709.72;;;6.11;88.14
22775;BME280;11554;51.106;3.684;2023-03-14T15:15:03;100725.42;;;6.18;89.56
22775;BME280;11554;51.106;3.684;2023-03-14T15:20:00;100719.36;;;6.28;88.44
22775;BME280;11554;51.106;3.684;2023-03-14T15:25:00;100740.18;;;6.43;90.35
22775;BME280;11554;51.106;3.684;2023-03-14T15:30:00;100741.54999999999;;;6.43;88.5
22775;BME280;11554;51.106;3.684;2023-03-14T15:35:00;100756.03;;;6.41;88.19
22775;BME280;11554;51.106;3.684;2023-03-14T15:40:00;100761.41;;;6.53;89.42
22775;BME280;11554;51.106;3.684;2023-03-14T15:45:00;100768.75;;;6.75;89.15
22775;BME280;11554;51.106;3.684;2023-03-14T15:50:00;100772.36;;;7.02;87.54
22775;BME280;11554;51.106;3.684;2023-03-14T15:55:00;100779.97;;;7.13;84.4
22775;BME280;11554;51.106;3.684;2023-03-14T16:00:00;100790.64;;;7.23;84.66
22775;BME280;11554;51.106;3.684;2023-03-14T16:05:00;100805.14;;;7.09;83.68
22775;BME280;11554;51.106;3.684;2023-03-14T16:10:00;100813.12000000001;;;6.74;83.91
22775;BME280;11554;51.106;3.684;2023-03-14T16:15:00;100826.79000000001;;;6.53;85.34
22775;BME280;11554;51.106;3.684;2023-03-14T16:20:00;100837.41;;;6.37;84.8
22775;BME280;11554;51.106;3.684;2023-03-14T16:25:00;100851.45;;;6.35;84.21
22775;BME280;11554;51.106;3.684;2023-03-14T16:30:00;100863.58;;;6.41;84.86
22775;BME280;11554;51.106;3.684;2023-03-14T16:35:00;100871.13;;;6.58;84.55
22775;BME280;11554;51.106;3.684;2023-03-14T16:40:00;100883.42;;;6.60;84.34
22775;BME280;11554;51.106;3.684;2023-03-14T16:45:00;100885.18000000001;;;6.35;82.39
22775;BME280;11554;51.106;3.684;2023-03-14T16:50:00;100886.84;;;6.13;82.85
22775;BME280;11554;51.106;3.684;2023-03-14T16:55:00;100893.39;;;5.97;82.68
22775;BME280;11554;51.106;3.684;2023-03-14T17:00:00;100910.47;;;5.81;83.18
22775;BME280;11554;51.106;3.684;2023-03-14T17:05:00;100924.89;;;5.77;84.48
22775;BME280;11554;51.106;3.684;2023-03-14T17:10:00;100933.74;;;5.68;84.51
22775;BME280;11554;51.106;3.684;2023-03-14T17:15:00;100943.82;;;5.68;86.92
22775;BME280;11554;51.106;3.684;2023-03-14T17:20:00;100954.6;;;5.70;86.73
22775;BME280;11554;51.106;3.684;2023-03-14T17:25:00;100963.06;;;5.67;87.68
22775;BME280;11554;51.106;3.684;2023-03-14T17:30:00;100974.95;;;5.41;88.39
22775;BME280;11554;51.106;3.684;2023-03-14T17:35:00;100989.29000000001;;;5.18;89.54
22775;BME280;11554;51.106;3.684;2023-03-14T17:40:00;101003.89;;;4.98;91.04
22775;BME280;11554;51.106;3.684;2023-03-14T17:45:00;101005.58;;;4.80;92.97
22775;BME280;11554;51.106;3.684;2023-03-14T17:50:00;101020.31;;;4.70;95.2
22775;BME280;11554;51.106;3.684;2023-03-14T17:55:00;101022.61;;;4.59;96.11
22775;BME280;11554;51.106;3.684;2023-03-14T18:00:00;101035.55;;;4.44;96.45
22775;BME280;11554;51.106;3.684;2023-03-14T18:05:00;101045.63;;;4.28;97.79
22775;BME280;11554;51.106;3.684;2023-03-14T18:10:00;101049.1;;;4.10;98.18
22775;BME280;11554;51.106;3.684;2023-03-14T18:15:00;101060.24;;;3.94;99.4
22775;BME280;11554;51.106;3.684;2023-03-14T18:20:00;101067.88;;;3.81;100.0
22775;BME280;11554;51.106;3.684;2023-03-14T18:25:00;101069.25;;;3.57;100.0
22775;BME280;11554;51.106;3.684;2023-03-14T18:30:00;101077.47;;;3.40;100.0
22775;BME280;11554;51.106;3.684;2023-03-14T18:35:00;101085.29999999999;;;3.25;100.0
22775;BME280;11554;51.106;3.684;2023-03-14T18:40:00;101084.5;;;3.17;100.0
22775;BME280;11554;51.106;3.684;2023-03-14T18:45:00;101089.5;;;3.06;100.0
22775;BME280;11554;51.106;3.684;2023-03-14T18:50:00;101097.0;;;3.04;100.0
22775;BME280;11554;51.106;3.684;2023-03-14T18:55:00;101096.78;;;2.93;100.0
22775;BME280;11554;51.106;3.684;2023-03-14T19:00:00;101104.63;;;2.93;100.0
22775;BME280;11554;51.106;3.684;2023-03-14T19:05:00;101112.33;;;2.91;100.0
22775;BME280;11554;51.106;3.684;2023-03-14T19:10:00;101111.37999999999;;;2.97;100.0
22775;BME280;11554;51.106;3.684;2023-03-14T19:15:00;101119.97;;;2.99;100.0
22775;BME280;11554;51.106;3.684;2023-03-14T19:20:00;101123.32;;;3.11;100.0
22775;BME280;11554;51.106;3.684;2023-03-14T19:25:00;101134.88;;;3.21;100.0
22775;BME280;11554;51.106;3.684;2023-03-14T19:30:00;101152.97;;;3.30;100.0
22775;BME280;11554;51.106;3.684;2023-03-14T19:35:00;101168.44;;;3.44;100.0
22775;BME280;11554;51.106;3.684;2023-03-14T19:40:00;101156.02;;;3.43;100.0
22775;BME280;11554;51.106;3.684;2023-03-14T19:45:00;101165.18;;;3.33;100.0
22775;BME280;11554;51.106;3.684;2023-03-14T19:50:00;101168.03;;;3.12;100.0
22775;BME280;11554;51.106;3.684;2023-03-14T19:55:00;101165.56;;;2.91;100.0
22775;BME280;11554;51.106;3.684;2023-03-14T20:05:00;101177.76;;;2.60;100.0
22775;BME280;11554;51.106;3.684;2023-03-14T20:10:00;101182.86;;;2.49;100.0
22775;BME280;11554;51.106;3.684;2023-03-14T20:15:00;101179.64;;;2.41;100.0
22775;BME280;11554;51.106;3.684;2023-03-14T20:20:00;101175.97;;;2.33;100.0
22775;BME280;11554;51.106;3.684;2023-03-14T20:25:00;101179.61;;;2.31;100.0
22775;BME280;11554;51.106;3.684;2023-03-14T20:30:01;101185.01;;;2.21;100.0
22775;BME280;11554;51.106;3.684;2023-03-14T20:35:00;101193.42;;;2.14;100.0
22775;BME280;11554;51.106;3.684;2023-03-14T20:40:00;101195.48;;;2.09;100.0
22775;BME280;11554;51.106;3.684;2023-03-14T20:45:00;101208.4;;;2.07;100.0
22775;BME280;11554;51.106;3.684;2023-03-14T20:50:00;101213.89;;;2.10;100.0
22775;BME280;11554;51.106;3.684;2023-03-14T20:55:00;101210.46;;;2.18;100.0
22775;BME280;11554;51.106;3.684;2023-03-14T21:00:00;101211.49;;;2.19;100.0
22775;BME280;11554;51.106;3.684;2023-03-14T21:05:00;101208.67;;;2.28;100.0
22775;BME280;11554;51.106;3.684;2023-03-14T21:10:00;101210.78;;;2.45;100.0
22775;BME280;11554;51.106;3.684;2023-03-14T21:15:00;101218.2;;;2.58;100.0
22775;BME280;11554;51.106;3.684;2023-03-14T21:20:00;101217.66;;;2.65;100.0
22775;BME280;11554;51.106;3.684;2023-03-14T21:25:00;101226.81999999999;;;2.75;100.0
22775;BME280;11554;51.106;3.684;2023-03-14T21:30:00;101222.29999999999;;;2.82;100.0
22775;BME280;11554;51.106;3.684;2023-03-14T21:35:00;101230.38;;;2.85;100.0
22775;BME280;11554;51.106;3.684;2023-03-14T21:40:00;101228.38;;;2.91;100.0
22775;BME280;11554;51.106;3.684;2023-03-14T21:45:00;101221.91;;;2.95;100.0
22775;BME280;11554;51.106;3.684;2023-03-14T21:50:00;101224.91;;;2.99;100.0
22775;BME280;11554;51.106;3.684;2023-03-14T21:55:00;101240.92000000001;;;3.06;100.0
22775;BME280;11554;51.106;3.684;2023-03-14T22:00:00;101236.55;;;3.11;100.0
22775;BME280;11554;51.106;3.684;2023-03-14T22:05:00;101224.83;;;3.13;100.0
22775;BME280;11554;51.106;3.684;2023-03-14T22:10:00;101242.04999999999;;;3.14;100.0
22775;BME280;11554;51.106;3.684;2023-03-14T22:15:00;101249.08;;;3.16;100.0
22775;BME280;11554;51.106;3.684;2023-03-14T22:20:00;101231.61;;;3.15;100.0
22775;BME280;11554;51.106;3.684;2023-03-14T22:25:00;101240.74;;;3.16;100.0
22775;BME280;11554;51.106;3.684;2023-03-14T22:30:00;101277.4;;;3.17;100.0
22775;BME280;11554;51.106;3.684;2023-03-14T22:35:00;101248.44;;;2.98;100.0
22775;BME280;11554;51.106;3.684;2023-03-14T22:40:00;101273.85;;;2.73;100.0
22775;BME280;11554;51.106;3.684;2023-03-14T22:45:00;101282.84999999999;;;2.65;100.0
22775;BME280;11554;51.106;3.684;2023-03-14T22:50:00;101241.44;;;2.68;100.0
22775;BME280;11554;51.106;3.684;2023-03-14T22:55:00;101238.87;;;2.71;100.0
22775;BME280;11554;51.106;3.684;2023-03-14T23:00:00;101208.15;;;2.74;100.0
22775;BME280;11554;51.106;3.684;2023-03-14T23:05:00;101202.72;;;2.81;100.0
22775;BME280;11554;51.106;3.684;2023-03-14T23:10:00;101195.54000000001;;;2.85;100.0
22775;BME280;11554;51.106;3.684;2023-03-14T23:15:00;101206.72;;;2.92;100.0
22775;BME280;11554;51.106;3.684;2023-03-14T23:20:00;101235.83;;;3.00;100.0
22775;BME280;11554;51.106;3.684;2023-03-14T23:25:00;101245.0;;;3.09;100.0
22775;BME280;11554;51.106;3.684;2023-03-14T23:30:00;101248.35;;;3.19;100.0
22775;BME280;11554;51.106;3.684;2023-03-14T23:35:00;101247.24;;;3.28;100.0
22775;BME280;11554;51.106;3.684;2023-03-14T23:40:00;101261.61;;;3.33;100.0
22775;BME280;11554;51.106;3.684;2023-03-14T23:45:00;101261.37999999999;;;3.32;100.0
22775;BME280;11554;51.106;3.684;2023-03-14T23:50:00;101269.34999999999;;;3.25;100.0
22775;BME280;11554;51.106;3.684;2023-03-14T23:55:00;101267.76999999999;;;3.21;100.0
